createdAt,value
2022-08-21T00:01:41.618Z,100417.78
2022-08-21T00:04:09.356Z,100421.38
2022-08-21T00:06:37.388Z,100415.88
2022-08-21T00:09:06.740Z,100410.38
2022-08-21T00:11:34.594Z,100412.28
2022-08-21T00:14:02.342Z,100413.13
2022-08-21T00:16:30.100Z,100406.78
2022-08-21T00:18:57.862Z,100416.09
2022-08-21T00:21:26.225Z,100421.56
2022-08-21T00:23:53.971Z,100412.50
2022-08-21T00:26:21.666Z,100422.44
2022-08-21T00:28:50.160Z,100421.81
2022-08-21T00:31:17.899Z,100417.16
2022-08-21T00:33:45.636Z,100421.81
2022-08-21T00:36:13.371Z,100418.00
2022-08-21T00:38:41.193Z,100414.41
2022-08-21T00:41:36.670Z,100414.41
2022-08-21T00:43:56.847Z,100414.66
2022-08-21T00:46:28.123Z,100405.53
2022-08-21T00:48:57.279Z,100411.91
2022-08-21T00:51:26.925Z,100414.66
2022-08-21T00:53:54.778Z,100413.78
2022-08-21T00:56:22.527Z,100419.06
2022-08-21T00:58:53.533Z,100417.41
2022-08-21T01:01:22.813Z,100424.78
2022-08-21T01:03:50.692Z,100417.41
2022-08-21T01:06:19.010Z,100421.19
2022-08-21T01:08:47.207Z,100415.69
2022-08-21T01:11:15.033Z,100415.69
2022-08-21T01:13:46.839Z,100423.94
2022-08-21T01:16:14.560Z,100415.69
2022-08-21T01:18:42.317Z,100418.44
2022-08-21T01:21:10.035Z,100426.69
2022-08-21T01:23:40.454Z,100427.75
2022-08-21T01:26:08.226Z,100425.00
2022-08-21T01:28:35.967Z,100417.59
2022-08-21T01:31:03.696Z,100426.69
2022-08-21T01:33:31.446Z,100426.06
2022-08-21T01:35:59.175Z,100425.22
2022-08-21T01:38:27.111Z,100427.75
2022-08-21T01:40:55.291Z,100420.56
2022-08-21T01:43:27.516Z,100420.56
2022-08-21T01:46:03.384Z,100419.72
2022-08-21T01:48:31.099Z,100421.63
2022-08-21T01:50:58.839Z,100419.72
2022-08-21T01:53:33.039Z,100405.16
2022-08-21T01:56:01.151Z,100404.31
2022-08-21T01:58:28.911Z,100397.97
2022-08-21T02:00:56.675Z,100396.91
2022-08-21T02:03:35.322Z,100396.06
2022-08-21T02:06:03.955Z,100403.47
2022-08-21T02:08:31.696Z,100400.72
2022-08-21T02:10:59.590Z,100402.41
2022-08-21T02:13:27.318Z,100405.16
2022-08-21T02:15:55.072Z,100407.91
2022-08-21T02:18:22.805Z,100410.66
2022-08-21T02:20:54.103Z,100405.16
2022-08-21T02:23:26.859Z,100406.22
2022-08-21T02:25:55.345Z,100403.47
2022-08-21T02:28:23.574Z,100393.31
2022-08-21T02:30:53.052Z,100399.88
2022-08-21T02:33:20.754Z,100396.28
2022-08-21T02:35:48.640Z,100396.28
2022-08-21T02:38:16.370Z,100388.03
2022-08-21T02:40:48.013Z,100401.78
2022-08-21T02:43:16.291Z,100401.78
2022-08-21T02:45:44.279Z,100396.28
2022-08-21T02:48:11.966Z,100402.59
2022-08-21T02:50:39.709Z,100401.78
2022-08-21T02:53:07.654Z,100395.44
2022-08-21T02:55:36.023Z,100399.88
2022-08-21T02:58:03.804Z,100403.69
2022-08-21T03:00:31.562Z,100397.34
2022-08-21T03:03:27.980Z,100399.88
2022-08-21T03:05:55.711Z,100397.34
2022-08-21T03:08:24.204Z,100397.34
2022-08-21T03:10:55.194Z,100391.88
2022-08-21T03:13:23.095Z,100387.38
2022-08-21T03:15:50.890Z,100398.38
2022-08-21T03:18:18.972Z,100397.34
2022-08-21T03:20:47.207Z,100392.03
2022-08-21T03:23:16.896Z,100403.03
2022-08-21T03:25:46.942Z,100399.44
2022-08-21T03:28:14.753Z,100403.88
2022-08-21T03:30:42.465Z,100399.22
2022-08-21T03:33:13.074Z,100396.69
2022-08-21T03:35:43.492Z,100395.03
2022-08-21T03:38:11.203Z,100395.63
2022-08-21T03:40:38.917Z,100400.28
2022-08-21T03:43:10.054Z,100398.59
2022-08-21T03:45:38.229Z,100407.69
2022-08-21T03:48:05.984Z,100405.78
2022-08-21T03:50:35.254Z,100417.00
2022-08-21T03:53:09.026Z,100411.50
2022-08-21T03:55:44.871Z,100417.00
2022-08-21T03:58:16.051Z,100417.22
2022-08-21T04:00:44.829Z,100416.38
2022-08-21T04:03:12.580Z,100420.78
2022-08-21T04:05:40.318Z,100426.28
2022-08-21T04:08:08.129Z,100430.75
2022-08-21T04:10:35.847Z,100429.03
2022-08-21T04:13:03.578Z,100422.69
2022-08-21T04:15:31.337Z,100421.63
2022-08-21T04:17:59.977Z,100425.44
2022-08-21T04:20:27.827Z,100431.78
2022-08-21T04:22:56.129Z,100427.13
2022-08-21T04:25:23.923Z,100436.44
2022-08-21T04:27:52.162Z,100443.84
2022-08-21T04:30:19.925Z,100441.94
2022-08-21T04:32:47.646Z,100447.44
2022-08-21T04:35:17.546Z,100437.72
2022-08-21T04:37:45.254Z,100438.56
2022-08-21T04:40:13.163Z,100449.34
2022-08-21T04:42:40.946Z,100448.50
2022-08-21T04:45:08.708Z,100448.50
2022-08-21T04:47:52.782Z,100454.84
2022-08-21T04:50:20.965Z,100446.59
2022-08-21T04:52:48.715Z,100450.19
2022-08-21T04:55:16.711Z,100454.00
2022-08-21T04:57:48.493Z,100456.75
2022-08-21T05:00:19.389Z,100456.50
2022-08-21T05:02:48.501Z,100456.75
2022-08-21T05:05:16.280Z,100458.63
2022-08-21T05:07:44.430Z,100464.13
2022-08-21T05:10:12.501Z,100464.13
2022-08-21T05:12:42.858Z,100469.63
2022-08-21T05:15:13.117Z,100466.88
2022-08-21T05:17:41.264Z,100477.03
2022-08-21T05:20:08.999Z,100480.59
2022-08-21T05:22:36.702Z,100477.84
2022-08-21T05:25:10.225Z,100475.97
2022-08-21T05:27:39.011Z,100475.09
2022-08-21T05:30:07.096Z,100473.22
2022-08-21T05:32:34.804Z,100467.94
2022-08-21T05:35:02.526Z,100472.38
2022-08-21T05:37:30.262Z,100462.44
2022-08-21T05:40:04.523Z,100470.47
2022-08-21T05:42:46.044Z,100475.09
2022-08-21T05:45:41.835Z,100474.28
2022-08-21T05:48:10.212Z,100478.72
2022-08-21T05:50:38.755Z,100475.97
2022-08-21T05:53:07.196Z,100475.75
2022-08-21T05:55:35.781Z,100471.94
2022-08-21T05:58:03.497Z,100465.59
2022-08-21T06:00:31.214Z,100477.44
2022-08-21T06:02:59.156Z,100473.63
2022-08-21T06:05:36.625Z,100475.28
2022-08-21T06:08:04.716Z,100473.63
2022-08-21T06:10:32.437Z,100475.28
2022-08-21T06:13:00.465Z,100473.41
2022-08-21T06:15:28.286Z,100486.28
2022-08-21T06:17:56.035Z,100487.16
2022-08-21T06:20:23.910Z,100493.69
2022-08-21T06:22:51.756Z,100491.78
2022-08-21T06:25:19.743Z,100491.78
2022-08-21T06:27:48.020Z,100494.53
2022-08-21T06:30:15.702Z,100486.28
2022-08-21T06:32:43.439Z,100491.78
2022-08-21T06:35:11.178Z,100497.28
2022-08-21T06:37:38.929Z,100502.78
2022-08-21T06:40:06.711Z,100499.00
2022-08-21T06:42:41.453Z,100496.25
2022-08-21T06:45:10.570Z,100504.50
2022-08-21T06:47:38.344Z,100503.63
2022-08-21T06:50:08.463Z,100509.13
2022-08-21T06:52:36.199Z,100510.00
2022-08-21T06:55:03.941Z,100509.13
2022-08-21T06:57:31.661Z,100505.50
2022-08-21T06:59:59.399Z,100501.75
2022-08-21T07:02:27.121Z,100499.84
2022-08-21T07:04:54.819Z,100504.50
2022-08-21T07:07:22.552Z,100493.53
2022-08-21T07:09:50.268Z,100498.16
2022-08-21T07:12:17.993Z,100492.66
2022-08-21T07:14:45.675Z,100497.28
2022-08-21T07:17:13.415Z,100492.66
2022-08-21T07:19:41.162Z,100493.69
2022-08-21T07:22:08.881Z,100492.44
2022-08-21T07:24:36.620Z,100490.53
2022-08-21T07:27:08.182Z,100501.53
2022-08-21T07:29:37.660Z,100501.31
2022-08-21T07:32:05.387Z,100501.53
2022-08-21T07:34:33.105Z,100500.69
2022-08-21T07:37:00.821Z,100498.16
2022-08-21T07:39:37.680Z,100500.03
2022-08-21T07:42:08.409Z,100502.78
2022-08-21T07:44:36.334Z,100502.78
2022-08-21T07:47:04.087Z,100502.78
2022-08-21T07:49:31.814Z,100493.53
2022-08-21T07:51:59.727Z,100495.19
2022-08-21T07:54:33.696Z,100493.28
2022-08-21T07:57:02.459Z,100488.84
2022-08-21T07:59:30.352Z,100485.91
2022-08-21T08:01:58.570Z,100488.03
2022-08-21T08:04:26.660Z,100482.53
2022-08-21T08:06:54.550Z,100482.53
2022-08-21T08:09:22.490Z,100483.38
2022-08-21T08:11:50.174Z,100485.91
2022-08-21T08:14:18.172Z,100483.16
2022-08-21T08:16:46.339Z,100477.03
2022-08-21T08:19:14.145Z,100487.59
2022-08-21T08:21:41.960Z,100486.50
2022-08-21T08:24:18.811Z,100486.50
2022-08-21T08:26:54.068Z,100491.16
2022-08-21T08:29:21.897Z,100482.09
2022-08-21T08:31:49.752Z,100492.25
2022-08-21T08:34:25.464Z,100492.88
2022-08-21T08:36:53.625Z,100490.13
2022-08-21T08:39:26.669Z,100490.97
2022-08-21T08:41:58.693Z,100479.97
2022-08-21T08:44:27.059Z,100486.28
2022-08-21T08:46:58.039Z,100475.50
2022-08-21T08:49:25.807Z,100483.75
2022-08-21T08:51:54.150Z,100481.00
2022-08-21T08:54:22.475Z,100480.16
2022-08-21T08:56:53.341Z,100480.16
2022-08-21T08:59:21.141Z,100478.25
2022-08-21T09:01:53.445Z,100482.09
2022-08-21T09:04:21.191Z,100479.34
2022-08-21T09:06:48.934Z,100476.38
2022-08-21T09:09:16.680Z,100479.97
2022-08-21T09:11:44.505Z,100476.97
2022-08-21T09:14:12.270Z,100481.44
2022-08-21T09:16:39.939Z,100481.19
2022-08-21T09:19:07.748Z,100474.03
2022-08-21T09:21:37.208Z,100478.44
2022-08-21T09:24:06.133Z,100481.19
2022-08-21T09:26:34.358Z,100483.94
2022-08-21T09:29:02.791Z,100475.69
2022-08-21T09:31:30.543Z,100484.56
2022-08-21T09:33:58.398Z,100483.72
2022-08-21T09:36:26.119Z,100472.75
2022-08-21T09:38:53.854Z,100475.50
2022-08-21T09:41:21.578Z,100472.75
2022-08-21T09:43:49.269Z,100479.06
2022-08-21T09:46:17.046Z,100475.25
2022-08-21T09:48:44.741Z,100473.38
2022-08-21T09:51:12.444Z,100473.38
2022-08-21T09:53:43.387Z,100473.56
2022-08-21T09:56:28.895Z,100469.16
2022-08-21T09:58:59.054Z,100474.03
2022-08-21T10:01:26.844Z,100473.19
2022-08-21T10:03:54.650Z,100471.47
2022-08-21T10:06:22.403Z,100479.97
2022-08-21T10:08:50.198Z,100468.75
2022-08-21T10:11:17.990Z,100476.97
2022-08-21T10:13:46.589Z,100472.34
2022-08-21T10:16:14.318Z,100476.16
2022-08-21T10:18:42.372Z,100469.81
2022-08-21T10:21:12.028Z,100468.97
2022-08-21T10:23:40.045Z,100472.34
2022-08-21T10:26:13.884Z,100472.34
2022-08-21T10:28:42.114Z,100468.75
2022-08-21T10:31:09.902Z,100467.69
2022-08-21T10:33:37.644Z,100469.38
2022-08-21T10:36:07.009Z,100466.00
2022-08-21T10:38:52.623Z,100466.84
2022-08-21T10:41:22.533Z,100464.31
2022-08-21T10:43:50.247Z,100467.91
2022-08-21T10:46:17.946Z,100454.16
2022-08-21T10:48:45.671Z,100459.66
2022-08-21T10:51:13.508Z,100460.28
2022-08-21T10:53:41.339Z,100456.47
2022-08-21T10:56:09.061Z,100465.78
2022-08-21T10:58:36.811Z,100456.47
2022-08-21T11:01:04.609Z,100450.97
2022-08-21T11:03:32.397Z,100454.78
2022-08-21T11:06:00.146Z,100461.38
2022-08-21T11:08:27.890Z,100448.22
2022-08-21T11:10:59.562Z,100449.06
2022-08-21T11:13:31.073Z,100450.38
2022-08-21T11:15:59.068Z,100452.03
2022-08-21T11:18:26.871Z,100453.13
2022-08-21T11:20:54.600Z,100452.25
2022-08-21T11:23:22.337Z,100447.63
2022-08-21T11:25:50.195Z,100447.63
2022-08-21T11:28:18.003Z,100440.22
2022-08-21T11:30:45.707Z,100445.72
2022-08-21T11:33:13.458Z,100449.28
2022-08-21T11:35:41.155Z,100447.63
2022-08-21T11:38:08.901Z,100445.72
2022-08-21T11:40:36.575Z,100438.50
2022-08-21T11:43:04.335Z,100430.50
2022-08-21T11:45:32.087Z,100432.19
2022-08-21T11:47:59.818Z,100423.09
2022-08-21T11:50:34.835Z,100424.19
2022-08-21T11:53:03.706Z,100416.16
2022-08-21T11:55:31.417Z,100414.22
2022-08-21T11:57:59.140Z,100414.22
2022-08-21T12:00:27.069Z,100414.22
2022-08-21T12:02:54.864Z,100412.31
2022-08-21T12:05:22.579Z,100408.72
2022-08-21T12:07:50.295Z,100412.31
2022-08-21T12:10:18.077Z,100409.56
2022-08-21T12:12:45.794Z,100411.47
2022-08-21T12:15:13.501Z,100416.78
2022-08-21T12:17:41.264Z,100415.69
2022-08-21T12:20:09.063Z,100415.69
2022-08-21T12:22:36.821Z,100408.53
2022-08-21T12:25:04.513Z,100414.03
2022-08-21T12:27:32.303Z,100409.38
2022-08-21T12:30:00.065Z,100410.19
2022-08-21T12:32:27.825Z,100411.91
2022-08-21T12:34:55.555Z,100402.59
2022-08-21T12:37:23.240Z,100405.09
2022-08-21T12:39:51.101Z,100396.00
2022-08-21T12:42:18.902Z,100398.16
2022-08-21T12:44:46.627Z,100407.44
2022-08-21T12:47:18.209Z,100403.03
2022-08-21T12:49:45.963Z,100404.69
2022-08-21T12:52:13.730Z,100401.75
2022-08-21T12:54:41.457Z,100398.75
2022-08-21T12:57:09.246Z,100401.31
2022-08-21T12:59:38.539Z,100397.47
2022-08-21T13:02:06.315Z,100399.38
2022-08-21T13:04:34.114Z,100392.81
2022-08-21T13:07:01.877Z,100393.88
2022-08-21T13:09:29.634Z,100396.00
2022-08-21T13:11:58.025Z,100392.66
2022-08-21T13:14:27.011Z,100388.22
2022-08-21T13:16:54.809Z,100386.31
2022-08-21T13:19:24.168Z,100382.72
2022-08-21T13:21:53.417Z,100386.31
2022-08-21T13:27:09.428Z,100381.06
2022-08-21T13:29:38.616Z,100383.34
2022-08-21T13:32:07.891Z,100375.09
2022-08-21T13:34:35.648Z,100384.19
2022-08-21T13:37:03.443Z,100383.56
2022-08-21T13:39:31.241Z,100379.75
2022-08-21T13:41:58.923Z,100381.69
2022-08-21T13:44:28.482Z,100378.06
2022-08-21T13:46:56.212Z,100377.84
2022-08-21T13:49:23.893Z,100378.94
2022-08-21T13:51:53.081Z,100381.44
2022-08-21T13:54:20.852Z,100377.59
2022-08-21T13:56:48.579Z,100370.69
2022-08-21T13:59:16.349Z,100374.28
2022-08-21T14:01:44.477Z,100374.47
2022-08-21T14:04:12.342Z,100378.94
2022-08-21T14:06:40.298Z,100380.59
2022-08-21T14:09:08.041Z,100376.38
2022-08-21T14:11:36.157Z,100377.22
2022-08-21T14:14:04.777Z,100371.72
2022-08-21T14:16:32.513Z,100372.56
2022-08-21T14:19:03.693Z,100372.56
2022-08-21T14:21:31.985Z,100366.88
2022-08-21T14:24:00.531Z,100365.78
2022-08-21T14:26:28.241Z,100362.19
2022-08-21T14:28:56.166Z,100356.94
2022-08-21T14:31:24.388Z,100364.13
2022-08-21T14:33:52.090Z,100364.94
2022-08-21T14:36:19.848Z,100348.47
2022-08-21T14:38:47.641Z,100355.25
2022-08-21T14:41:16.801Z,100346.78
2022-08-21T14:43:44.585Z,100348.09
2022-08-21T14:46:12.312Z,100348.91
2022-08-21T14:48:40.079Z,100349.75
2022-08-21T14:51:07.793Z,100355.88
2022-08-21T14:53:35.743Z,100356.94
2022-08-21T14:56:09.533Z,100349.75
2022-08-21T14:58:37.218Z,100354.41
2022-08-21T15:01:05.622Z,100348.28
2022-08-21T15:03:33.411Z,100355.50
2022-08-21T15:06:01.471Z,100341.75
2022-08-21T15:08:29.242Z,100347.00
2022-08-21T15:11:11.536Z,100340.47
2022-08-21T15:13:40.417Z,100335.38
2022-08-21T15:16:08.123Z,100337.94
2022-08-21T15:18:35.809Z,100332.44
2022-08-21T15:21:03.539Z,100326.94
2022-08-21T15:23:31.293Z,100327.78
2022-08-21T15:25:59.855Z,100323.56
2022-08-21T15:28:31.721Z,100325.25
2022-08-21T15:30:59.803Z,100324.63
2022-08-21T15:33:27.560Z,100324.63
2022-08-21T15:35:55.307Z,100326.56
2022-08-21T15:38:23.035Z,100335.63
2022-08-21T15:40:51.956Z,100327.38
2022-08-21T15:43:20.217Z,100327.16
2022-08-21T15:45:57.512Z,100329.88
2022-08-21T15:48:25.269Z,100338.13
2022-08-21T15:50:53.011Z,100328.00
2022-08-21T15:53:20.818Z,100324.41
2022-08-21T15:55:48.503Z,100319.78
2022-08-21T15:58:16.738Z,100324.41
2022-08-21T16:00:45.537Z,100323.81
2022-08-21T16:03:14.948Z,100327.59
2022-08-21T16:05:43.338Z,100328.66
2022-08-21T16:08:11.904Z,100321.44
2022-08-21T16:10:39.707Z,100318.69
2022-08-21T16:13:07.794Z,100323.19
2022-08-21T16:15:35.513Z,100316.81
2022-08-21T16:18:03.309Z,100319.34
2022-08-21T16:20:31.078Z,100311.13
2022-08-21T16:22:59.068Z,100311.94
2022-08-21T16:25:27.091Z,100310.06
2022-08-21T16:27:58.954Z,100314.69
2022-08-21T16:30:27.434Z,100319.34
2022-08-21T16:32:55.267Z,100315.56
2022-08-21T16:35:23.109Z,100311.75
2022-08-21T16:37:53.393Z,100308.38
2022-08-21T16:40:23.148Z,100314.69
2022-08-21T16:42:51.153Z,100312.19
2022-08-21T16:45:18.867Z,100316.59
2022-08-21T16:47:46.605Z,100305.81
2022-08-21T16:50:14.380Z,100310.28
2022-08-21T16:52:42.127Z,100312.19
2022-08-21T16:55:09.816Z,100313.03
2022-08-21T16:57:37.562Z,100305.63
2022-08-21T17:00:05.741Z,100303.69
2022-08-21T17:02:33.455Z,100303.94
2022-08-21T17:05:02.565Z,100310.47
2022-08-21T17:07:34.052Z,100305.81
2022-08-21T17:10:04.390Z,100308.56
2022-08-21T17:12:32.161Z,100310.28
2022-08-21T17:14:59.855Z,100304.97
2022-08-21T17:17:27.653Z,100309.44
2022-08-21T17:19:55.407Z,100301.19
2022-08-21T17:22:23.144Z,100306.69
2022-08-21T17:24:50.875Z,100306.69
2022-08-21T17:27:22.115Z,100302.22
2022-08-21T17:29:54.726Z,100306.69
2022-08-21T17:32:22.415Z,100311.31
2022-08-21T17:34:50.137Z,100316.81
2022-08-21T17:37:17.839Z,100314.06
2022-08-21T17:39:45.635Z,100315.94
2022-08-21T17:42:13.682Z,100315.13
2022-08-21T17:44:41.404Z,100315.94
2022-08-21T17:47:09.201Z,100328.66
2022-08-21T17:49:36.888Z,100324.19
2022-08-21T17:52:04.719Z,100327.81
2022-08-21T17:54:32.473Z,100319.78
2022-08-21T17:57:00.221Z,100323.34
2022-08-21T17:59:27.905Z,100320.59
2022-08-21T18:02:01.225Z,100328.00
2022-08-21T18:04:29.103Z,100328.22
2022-08-21T18:06:56.891Z,100329.94
2022-08-21T18:09:28.082Z,100336.25
2022-08-21T18:11:55.841Z,100335.41
2022-08-21T18:14:23.599Z,100337.09
2022-08-21T18:16:51.374Z,100336.25
2022-08-21T18:19:25.251Z,100338.38
2022-08-21T18:21:53.221Z,100334.59
2022-08-21T18:24:20.966Z,100341.75
2022-08-21T18:26:48.682Z,100335.41
2022-08-21T18:29:16.937Z,100333.50
2022-08-21T18:31:46.101Z,100340.69
2022-08-21T18:34:18.228Z,100343.41
2022-08-21T18:36:47.713Z,100342.59
2022-08-21T18:39:35.572Z,100333.31
2022-08-21T18:42:03.144Z,100347.25
2022-08-21T18:44:31.282Z,100347.25
2022-08-21T18:46:59.277Z,100341.75
2022-08-21T18:49:27.001Z,100355.50
2022-08-21T18:51:54.745Z,100352.75
2022-08-21T18:54:25.120Z,100358.22
2022-08-21T18:59:42.207Z,100357.59
2022-08-21T19:02:10.563Z,100354.03
2022-08-21T19:04:44.219Z,100357.59
2022-08-21T19:07:13.850Z,100361.19
2022-08-21T19:09:42.074Z,100355.94
2022-08-21T19:12:14.467Z,100365.00
2022-08-21T19:14:42.506Z,100365.00
2022-08-21T19:17:10.224Z,100365.84
2022-08-21T19:19:39.476Z,100365.84
2022-08-21T19:22:10.889Z,100362.47
2022-08-21T19:24:38.920Z,100366.50
2022-08-21T19:27:06.667Z,100364.63
2022-08-21T19:29:36.422Z,100357.44
2022-08-21T19:32:04.198Z,100364.00
2022-08-21T19:34:32.679Z,100359.53
2022-08-21T19:37:00.524Z,100368.88
2022-08-21T19:39:28.295Z,100376.03
2022-08-21T19:41:56.395Z,100366.94
2022-08-21T19:44:24.709Z,100366.13
2022-08-21T19:46:52.701Z,100366.13
2022-08-21T19:49:20.702Z,100362.53
2022-08-21T19:51:49.838Z,100375.44
2022-08-21T19:54:17.893Z,100372.69
2022-08-21T19:56:45.748Z,100376.28
2022-08-21T19:59:14.893Z,100379.00
2022-08-21T20:01:45.479Z,100368.88
2022-08-21T20:04:17.992Z,100376.47
2022-08-21T20:06:47.327Z,100373.72
2022-08-21T20:09:15.853Z,100377.31
2022-08-21T20:11:43.632Z,100375.63
2022-08-21T20:14:11.348Z,100372.06
2022-08-21T20:16:39.114Z,100374.81
2022-08-21T20:19:09.321Z,100373.97
2022-08-21T20:21:44.325Z,100374.81
2022-08-21T20:24:12.289Z,100368.47
2022-08-21T20:26:43.240Z,100371.22
2022-08-21T20:29:16.926Z,100374.19
2022-08-21T20:31:52.037Z,100371.44
2022-08-21T20:34:19.818Z,100372.50
2022-08-21T20:36:47.556Z,100379.66
2022-08-21T20:39:15.288Z,100387.69
2022-08-21T20:41:45.260Z,100380.50
2022-08-21T20:44:15.533Z,100383.50
2022-08-21T20:46:43.314Z,100375.47
2022-08-21T20:49:11.118Z,100387.91
2022-08-21T20:51:39.320Z,100386.00
2022-08-21T20:54:07.098Z,100384.53
2022-08-21T20:56:34.888Z,100383.50
2022-08-21T20:59:02.735Z,100387.28
2022-08-21T21:01:31.215Z,100376.28
2022-08-21T21:03:58.933Z,100382.03
2022-08-21T21:09:21.945Z,100376.75
2022-08-21T21:11:54.828Z,100382.84
2022-08-21T21:14:23.493Z,100381.19
2022-08-21T21:16:52.139Z,100382.03
2022-08-21T21:19:27.028Z,100382.03
2022-08-21T21:21:54.754Z,100387.53
2022-08-21T21:24:22.674Z,100385.81
2022-08-21T21:26:55.492Z,100393.22
2022-08-21T21:29:23.344Z,100391.09
2022-08-21T21:31:51.135Z,100391.31
2022-08-21T21:34:21.254Z,100395.97
2022-08-21T21:36:51.541Z,100401.47
2022-08-21T21:39:37.157Z,100396.81
2022-08-21T21:42:16.027Z,100400.63
2022-08-21T21:44:49.268Z,100399.78
2022-08-21T21:47:16.938Z,100393.22
2022-08-21T21:49:44.720Z,100401.47
2022-08-21T21:52:17.543Z,100401.69
2022-08-21T21:54:45.266Z,100399.78
2022-08-21T21:57:13.977Z,100398.09
2022-08-21T21:59:41.879Z,100404.44
2022-08-21T22:02:09.643Z,100396.19
2022-08-21T22:04:37.439Z,100403.56
2022-08-21T22:07:06.227Z,100406.31
2022-08-21T22:09:35.841Z,100401.91
2022-08-21T22:12:03.574Z,100410.13
2022-08-21T22:14:32.799Z,100409.31
2022-08-21T22:17:00.543Z,100412.88
2022-08-21T22:19:28.740Z,100407.59
2022-08-21T22:21:56.415Z,100410.34
2022-08-21T22:24:24.378Z,100410.13
2022-08-21T22:26:55.968Z,100405.72
2022-08-21T22:29:23.798Z,100404.84
2022-08-21T22:31:51.472Z,100398.53
2022-08-21T22:34:20.119Z,100404.00
2022-08-21T22:36:51.916Z,100410.59
2022-08-21T22:39:19.781Z,100407.00
2022-08-21T22:41:47.522Z,100409.50
2022-08-21T22:44:15.259Z,100406.13
2022-08-21T22:46:43.037Z,100413.31
2022-08-21T22:49:11.372Z,100407.00
2022-08-21T22:51:39.122Z,100409.75
2022-08-21T22:54:16.767Z,100408.88
2022-08-21T22:56:49.631Z,100409.94
2022-08-21T22:59:17.354Z,100419.25
2022-08-21T23:01:46.155Z,100412.69
2022-08-21T23:04:17.585Z,100409.13
2022-08-21T23:06:46.433Z,100420.09
2022-08-21T23:09:15.015Z,100419.25
2022-08-21T23:11:44.016Z,100413.78
2022-08-21T23:14:14.234Z,100409.31
2022-08-21T23:19:30.507Z,100419.47
2022-08-21T23:22:05.591Z,100415.06
2022-08-21T23:24:37.175Z,100415.06
2022-08-21T23:29:52.731Z,100413.34
2022-08-21T23:32:20.714Z,100408.09
2022-08-21T23:34:49.262Z,100415.25
2022-08-21T23:37:48.568Z,100422.41
2022-08-21T23:40:17.288Z,100418.44
2022-08-21T23:42:45.866Z,100420.94
2022-08-21T23:45:14.378Z,100423.50
2022-08-21T23:47:45.034Z,100422.88
2022-08-21T23:50:18.833Z,100421.81
2022-08-21T23:52:46.616Z,100424.56
2022-08-21T23:55:14.307Z,100423.69
2022-08-21T23:57:42.026Z,100426.44
